Time;durP1;ratioP1;P1;durP2;ratioP2;P2;SDS_P1;SDS_P2;PMS_P1;PMS_P2;Temp;Humidity;BMP_temperature;BMP_pressure;BME280_temperature;BME280_humidity;BME280_pressure;Samples;Min_cycle;Max_cycle;Signal;HPM_P1;HPM_P2
2023/04/28 00:00:50;;;;;;;16.58;13.05;;;8.70;99.90;;;;;;5065076;28;20119;-76
2023/04/28 00:03:16;;;;;;;17.23;13.70;;;8.70;99.90;;;;;;5063954;28;20186;-76
2023/04/28 00:05:42;;;;;;;15.52;12.85;;;8.70;99.90;;;;;;5063534;28;20125;-76
2023/04/28 00:08:08;;;;;;;17.23;13.25;;;8.60;99.90;;;;;;5065639;28;20090;-75
2023/04/28 00:10:33;;;;;;;16.83;13.48;;;8.60;99.90;;;;;;5063553;28;20450;-76
2023/04/28 00:13:00;;;;;;;15.00;12.48;;;8.50;99.90;;;;;;5063783;28;20033;-76
2023/04/28 00:15:25;;;;;;;15.52;13.15;;;8.60;99.90;;;;;;5070937;28;20056;-76
2023/04/28 00:17:52;;;;;;;17.17;13.15;;;8.60;99.90;;;;;;5061513;28;20032;-76
2023/04/28 00:20:17;;;;;;;17.02;13.75;;;8.50;99.90;;;;;;5064292;28;20037;-73
2023/04/28 00:22:43;;;;;;;14.90;13.30;;;8.60;99.90;;;;;;5058479;28;20041;-72
2023/04/28 00:25:09;;;;;;;16.80;13.73;;;8.50;99.90;;;;;;5062338;28;20674;-76
2023/04/28 00:27:35;;;;;;;20.42;13.93;;;8.50;99.90;;;;;;5064809;28;20048;-76
2023/04/28 00:30:01;;;;;;;19.15;14.55;;;8.40;99.90;;;;;;5065532;28;20403;-76
2023/04/28 00:32:27;;;;;;;17.42;13.68;;;8.50;99.90;;;;;;5063700;28;20063;-74
2023/04/28 00:34:53;;;;;;;15.20;13.60;;;8.50;99.90;;;;;;5057024;28;20037;-76
2023/04/28 00:37:19;;;;;;;17.98;13.75;;;8.50;99.90;;;;;;5059840;28;20044;-77
2023/04/28 00:39:47;;;;;;;16.17;13.50;;;8.50;99.90;;;;;;5058192;28;20171;-74
2023/04/28 00:42:14;;;;;;;18.27;13.52;;;8.40;99.90;;;;;;5064713;28;20037;-74
2023/04/28 00:44:40;;;;;;;15.25;13.32;;;8.40;99.90;;;;;;5059761;28;20044;-73
2023/04/28 00:47:07;;;;;;;17.00;13.68;;;8.40;99.90;;;;;;5069977;28;20041;-74
2023/04/28 00:49:35;;;;;;;18.48;12.55;;;8.40;99.90;;;;;;5063223;28;20068;-74
2023/04/28 00:52:03;;;;;;;;;;;8.40;99.90;;;;;;5063558;28;20074;-74
2023/04/28 00:54:29;;;;;;;21.48;13.48;;;8.30;99.90;;;;;;5061760;28;19954;-74
2023/04/28 00:56:55;;;;;;;16.48;13.45;;;8.30;99.90;;;;;;5062477;28;20625;-74
2023/04/28 00:59:21;;;;;;;17.55;13.18;;;8.30;99.90;;;;;;5067736;28;20056;-74
2023/04/28 01:01:47;;;;;;;15.57;13.55;;;8.30;99.90;;;;;;5068223;28;20439;-74
2023/04/28 01:04:29;;;;;;;17.23;13.30;;;8.30;99.90;;;;;;5067322;28;20043;-74
2023/04/28 01:06:55;;;;;;;18.38;13.25;;;8.20;99.90;;;;;;5063865;28;20066;-74
2023/04/28 01:09:20;;;;;;;18.23;13.40;;;8.20;99.90;;;;;;5063622;28;20480;-74
2023/04/28 01:11:46;;;;;;;14.65;12.27;;;8.30;99.90;;;;;;5056739;28;20055;-74
2023/04/28 01:14:15;;;;;;;16.30;12.70;;;8.20;99.90;;;;;;5063181;28;20033;-74
2023/04/28 01:16:41;;;;;;;16.60;13.48;;;8.30;99.90;;;;;;5060870;28;20105;-74
2023/04/28 01:19:11;;;;;;;15.43;12.45;;;8.20;99.90;;;;;;5065432;28;20555;-74
2023/04/28 01:21:37;;;;;;;18.65;13.65;;;8.20;99.90;;;;;;5063375;28;20037;-74
2023/04/28 01:24:05;;;;;;;14.70;13.05;;;8.30;99.90;;;;;;5062762;28;20047;-74
2023/04/28 01:26:30;;;;;;;15.35;13.18;;;8.20;99.90;;;;;;5056556;28;20048;-73
2023/04/28 01:28:59;;;;;;;15.63;13.23;;;8.20;99.90;;;;;;5063685;28;20059;-74
2023/04/28 01:31:29;;;;;;;18.30;13.43;;;8.20;99.90;;;;;;5056117;28;20036;-73
2023/04/28 01:34:07;;;;;;;17.63;14.15;;;8.20;99.90;;;;;;5057416;28;20629;-73
2023/04/28 01:36:33;;;;;;;17.88;13.00;;;8.10;99.90;;;;;;5059212;28;20067;-73
2023/04/28 01:39:01;;;;;;;17.60;13.57;;;8.10;99.90;;;;;;5063058;28;20178;-73
2023/04/28 01:41:27;;;;;;;18.02;12.98;;;8.20;99.90;;;;;;5061033;28;20493;-73
2023/04/28 01:43:52;;;;;;;17.50;12.65;;;8.20;99.90;;;;;;5063081;28;20037;-73
2023/04/28 01:46:18;;;;;;;17.70;13.27;;;8.10;99.90;;;;;;5061229;28;20483;-73
2023/04/28 01:48:43;;;;;;;18.45;13.60;;;8.20;99.90;;;;;;5063087;28;20041;-73
2023/04/28 01:51:09;;;;;;;15.80;12.73;;;8.20;99.90;;;;;;5061887;28;20507;-73
2023/04/28 01:53:35;;;;;;;16.73;12.75;;;8.20;99.90;;;;;;5059349;28;20472;-73
2023/04/28 01:56:01;;;;;;;17.98;13.35;;;8.20;99.90;;;;;;5061501;28;20110;-73
2023/04/28 01:58:27;;;;;;;18.30;12.68;;;8.20;99.90;;;;;;5060008;28;20056;-73
2023/04/28 02:00:52;;;;;;;15.48;12.75;;;8.20;99.90;;;;;;5062748;28;20048;-73
2023/04/28 02:03:18;;;;;;;15.60;13.07;;;8.10;99.90;;;;;;5064181;28;20068;-73
2023/04/28 02:05:43;;;;;;;15.20;12.77;;;8.10;99.90;;;;;;5061342;28;20041;-73
2023/04/28 02:08:12;;;;;;;19.23;13.00;;;8.20;99.90;;;;;;5061719;28;20127;-73
2023/04/28 02:10:38;;;;;;;18.20;13.68;;;8.10;99.90;;;;;;5058075;28;20471;-73
2023/04/28 02:13:03;;;;;;;18.70;12.82;;;8.10;99.90;;;;;;5059365;28;20119;-73
2023/04/28 02:15:29;;;;;;;18.27;13.30;;;8.10;99.90;;;;;;5067123;28;20135;-73
2023/04/28 02:17:55;;;;;;;15.95;12.90;;;8.10;99.90;;;;;;5068394;28;20055;-73
2023/04/28 02:20:20;;;;;;;17.55;13.27;;;8.10;99.90;;;;;;5063247;28;20044;-73
2023/04/28 02:22:46;;;;;;;17.08;13.18;;;8.20;99.90;;;;;;5065367;28;20479;-73
2023/04/28 02:25:12;;;;;;;16.30;12.68;;;8.10;99.90;;;;;;5067677;28;20178;-73
2023/04/28 02:27:37;;;;;;;14.85;13.13;;;8.20;99.90;;;;;;5061184;28;20044;-73
2023/04/28 02:30:04;;;;;;;17.90;13.40;;;8.10;99.90;;;;;;5059271;28;20036;-73
2023/04/28 02:32:30;;;;;;;15.50;12.60;;;8.10;99.90;;;;;;5063512;28;20449;-72
2023/04/28 02:34:56;;;;;;;16.67;12.75;;;8.10;99.90;;;;;;5064690;28;20052;-73
2023/04/28 02:37:22;;;;;;;15.05;12.85;;;8.10;99.90;;;;;;5059841;28;20047;-73
2023/04/28 02:39:47;;;;;;;15.95;12.75;;;8.20;99.90;;;;;;5061957;28;20044;-73
2023/04/28 02:42:13;;;;;;;19.02;13.93;;;8.20;99.90;;;;;;5064656;28;20036;-73
2023/04/28 02:44:39;;;;;;;16.65;12.70;;;8.10;99.90;;;;;;5062033;28;20048;-73
2023/04/28 02:47:07;;;;;;;15.38;12.52;;;8.20;99.90;;;;;;5068449;28;20036;-73
2023/04/28 02:49:33;;;;;;;19.35;13.60;;;8.10;99.90;;;;;;5067618;28;20080;-73
2023/04/28 02:51:59;;;;;;;17.15;13.68;;;8.10;99.90;;;;;;5068310;28;20072;-73
2023/04/28 02:54:27;;;;;;;17.85;13.07;;;8.10;99.90;;;;;;5064241;28;20033;-73
2023/04/28 02:56:53;;;;;;;17.98;12.25;;;8.10;99.90;;;;;;5066621;28;20044;-73
2023/04/28 02:59:20;;;;;;;15.68;12.85;;;8.00;99.90;;;;;;5068374;28;20053;-73
2023/04/28 03:01:46;;;;;;;14.93;12.90;;;8.00;99.90;;;;;;5069598;28;20048;-73
2023/04/28 03:04:11;;;;;;;17.35;13.75;;;8.00;99.90;;;;;;5068795;28;20032;-73
2023/04/28 03:06:37;;;;;;;16.30;12.70;;;8.00;99.90;;;;;;5067777;28;20032;-73
2023/04/28 03:09:03;;;;;;;17.33;12.95;;;8.00;99.90;;;;;;5065392;28;20119;-73
2023/04/28 03:11:28;;;;;;;17.23;12.25;;;8.00;99.90;;;;;;5058881;28;20458;-73
2023/04/28 03:13:54;;;;;;;17.35;13.45;;;8.00;99.90;;;;;;5060232;28;20052;-73
2023/04/28 03:16:19;;;;;;;16.48;13.57;;;8.00;99.90;;;;;;5065090;28;20044;-73
2023/04/28 03:18:45;;;;;;;16.25;13.60;;;7.90;99.90;;;;;;5064926;28;20063;-72
2023/04/28 03:21:11;;;;;;;17.70;13.38;;;7.90;99.90;;;;;;5061726;28;20041;-73
2023/04/28 03:23:36;;;;;;;18.05;13.40;;;7.90;99.90;;;;;;5064366;28;20067;-72
2023/04/28 03:26:02;;;;;;;17.67;13.68;;;7.90;99.90;;;;;;5063145;28;20132;-73
2023/04/28 03:28:30;;;;;;;15.43;13.07;;;7.90;99.90;;;;;;5060970;28;20045;-73
2023/04/28 03:30:56;;;;;;;15.88;13.65;;;7.90;99.90;;;;;;5062375;28;20071;-73
2023/04/28 03:33:22;;;;;;;14.85;12.80;;;7.90;99.90;;;;;;5067403;28;20396;-73
2023/04/28 03:35:47;;;;;;;19.50;13.95;;;7.90;99.90;;;;;;5059221;28;20044;-73
2023/04/28 03:38:16;;;;;;;18.02;13.90;;;7.90;99.90;;;;;;5063255;28;20032;-73
2023/04/28 03:40:41;;;;;;;15.57;13.02;;;7.90;99.90;;;;;;5063221;28;20120;-72
2023/04/28 03:43:07;;;;;;;18.92;13.45;;;7.90;99.90;;;;;;5058895;28;20175;-73
2023/04/28 03:45:32;;;;;;;19.02;13.75;;;7.90;99.90;;;;;;5060647;28;20589;-73
2023/04/28 03:47:58;;;;;;;19.00;14.05;;;7.90;99.90;;;;;;5064882;28;20094;-73
2023/04/28 03:50:24;;;;;;;17.02;14.07;;;7.90;99.90;;;;;;5066927;28;20037;-73
2023/04/28 03:52:50;;;;;;;18.83;13.82;;;7.90;99.90;;;;;;5062734;28;20177;-73
2023/04/28 03:55:15;;;;;;;17.23;13.80;;;7.80;99.90;;;;;;5063479;28;20399;-73
2023/04/28 03:57:41;;;;;;;15.52;13.57;;;7.80;99.90;;;;;;5062704;28;20045;-72
2023/04/28 04:00:10;;;;;;;19.15;14.13;;;7.80;99.90;;;;;;5064227;28;20041;-73
2023/04/28 04:02:39;;;;;;;18.10;14.15;;;7.80;99.90;;;;;;5065202;28;20059;-73
2023/04/28 04:05:05;;;;;;;17.10;13.85;;;7.80;99.90;;;;;;5064063;28;20047;-73
2023/04/28 04:07:31;;;;;;;18.88;14.90;;;7.80;99.90;;;;;;5064110;28;20040;-74
2023/04/28 04:09:56;;;;;;;16.40;13.27;;;7.70;99.90;;;;;;5064833;28;20040;-73
2023/04/28 04:12:22;;;;;;;18.27;13.35;;;7.80;99.90;;;;;;5064570;28;20750;-73
2023/04/28 04:14:47;;;;;;;20.58;13.85;;;7.80;99.90;;;;;;5065093;28;20106;-73
2023/04/28 04:17:13;;;;;;;18.70;14.13;;;7.80;99.90;;;;;;5062391;28;20041;-73
2023/04/28 04:19:38;;;;;;;19.13;14.20;;;7.80;99.90;;;;;;5063902;28;20519;-73
2023/04/28 04:22:04;;;;;;;19.58;14.07;;;7.70;99.90;;;;;;5064064;28;20080;-73
2023/04/28 04:24:30;;;;;;;19.38;14.02;;;7.80;99.90;;;;;;5065824;28;20044;-73
2023/04/28 04:26:55;;;;;;;17.35;14.18;;;7.80;99.90;;;;;;5061925;28;20149;-73
2023/04/28 04:29:21;;;;;;;18.67;13.85;;;7.80;99.90;;;;;;5065605;28;20095;-73
2023/04/28 04:31:48;;;;;;;18.35;13.82;;;7.70;99.90;;;;;;5064098;28;20310;-73
2023/04/28 04:34:22;;;;;;;18.90;13.80;;;7.80;99.90;;;;;;5061846;28;20032;-73
2023/04/28 04:36:47;;;;;;;15.77;13.63;;;7.70;99.90;;;;;;5059340;28;20120;-72
2023/04/28 04:39:13;;;;;;;17.80;14.32;;;7.70;99.90;;;;;;5066454;28;20120;-73
2023/04/28 04:41:48;;;;;;;17.15;13.55;;;7.80;99.90;;;;;;5060639;28;20402;-73
2023/04/28 04:44:13;;;;;;;20.92;13.30;;;7.80;99.90;;;;;;5059445;28;20075;-73
2023/04/28 04:46:39;;;;;;;20.15;14.15;;;7.80;99.90;;;;;;5065519;28;20044;-73
2023/04/28 04:49:04;;;;;;;17.83;13.20;;;7.80;99.90;;;;;;5061253;28;20044;-72
2023/04/28 04:51:31;;;;;;;18.45;14.00;;;7.80;99.90;;;;;;5060634;28;20044;-73
2023/04/28 04:53:56;;;;;;;20.70;13.30;;;7.80;99.90;;;;;;5061070;28;20058;-73
2023/04/28 04:56:22;;;;;;;17.65;13.52;;;7.80;99.90;;;;;;5059539;28;20044;-73
2023/04/28 04:58:49;;;;;;;15.65;13.13;;;7.90;99.90;;;;;;5064777;28;20667;-73
2023/04/28 05:01:15;;;;;;;20.52;12.88;;;7.80;99.90;;;;;;5063947;22;20072;-73
2023/04/28 05:03:40;;;;;;;17.02;13.07;;;7.90;99.90;;;;;;5043840;28;20042;-73
2023/04/28 05:06:06;;;;;;;17.02;13.25;;;7.70;99.90;;;;;;5042270;28;20040;-73
2023/04/28 05:08:35;;;;;;;16.70;12.68;;;7.90;99.90;;;;;;5039937;28;20045;-73
2023/04/28 05:11:00;;;;;;;17.50;13.15;;;7.90;99.90;;;;;;5037458;28;20106;-73
2023/04/28 05:13:26;;;;;;;16.88;13.10;;;7.90;99.90;;;;;;5043393;28;20480;-73
2023/04/28 05:15:51;;;;;;;15.88;13.27;;;7.90;99.90;;;;;;5039193;28;20048;-73
2023/04/28 05:18:17;;;;;;;17.05;12.18;;;8.00;99.90;;;;;;5036664;28;20041;-73
2023/04/28 05:20:43;;;;;;;17.63;12.75;;;7.90;99.90;;;;;;5044529;28;20060;-73
2023/04/28 05:23:09;;;;;;;17.67;12.13;;;8.00;99.90;;;;;;5043898;28;20077;-73
2023/04/28 05:25:35;;;;;;;15.10;12.50;;;8.00;99.90;;;;;;5043622;28;20072;-73
2023/04/28 05:28:06;;;;;;;18.13;12.50;;;8.10;99.90;;;;;;5044801;28;20072;-73
2023/04/28 05:30:32;;;;;;;17.23;12.52;;;8.00;99.90;;;;;;5040135;28;20049;-73
2023/04/28 05:32:58;;;;;;;17.40;12.40;;;7.90;99.90;;;;;;5036938;28;20045;-73
2023/04/28 05:35:25;;;;;;;18.30;12.60;;;8.10;99.90;;;;;;5041605;28;20570;-73
2023/04/28 05:37:50;;;;;;;15.38;12.50;;;8.00;99.90;;;;;;5036568;28;20049;-73
2023/04/28 05:40:16;;;;;;;16.15;12.32;;;8.00;99.90;;;;;;5040493;28;20044;-73
2023/04/28 05:42:42;;;;;;;18.17;12.90;;;8.10;99.90;;;;;;5041004;28;20044;-73
2023/04/28 05:45:08;;;;;;;14.48;11.80;;;8.10;99.90;;;;;;5042621;28;20737;-73
2023/04/28 05:47:34;;;;;;;15.15;11.75;;;8.20;99.90;;;;;;5043722;28;20053;-73
2023/04/28 05:49:59;;;;;;;15.77;11.57;;;8.10;99.90;;;;;;5041890;28;20066;-73
2023/04/28 05:52:25;;;;;;;14.55;12.18;;;8.20;99.90;;;;;;5036674;28;20045;-74
2023/04/28 05:54:51;;;;;;;17.15;11.85;;;8.10;99.90;;;;;;5043506;28;20068;-73
2023/04/28 05:57:19;;;;;;;15.95;12.02;;;8.20;99.90;;;;;;5041695;28;20044;-73
2023/04/28 05:59:46;;;;;;;15.63;11.65;;;8.20;99.90;;;;;;5041006;28;20044;-73
2023/04/28 06:02:12;;;;;;;14.63;11.52;;;8.20;99.90;;;;;;5037152;28;20045;-73
2023/04/28 06:04:42;;;;;;;13.75;10.70;;;8.20;99.90;;;;;;5043592;28;20094;-73
2023/04/28 06:07:09;;;;;;;17.27;11.55;;;8.30;99.90;;;;;;5039791;28;20069;-74
2023/04/28 06:09:35;;;;;;;16.08;11.18;;;8.30;99.90;;;;;;5045750;28;20049;-74
2023/04/28 06:12:04;;;;;;;13.48;10.93;;;8.20;99.90;;;;;;5046186;28;20055;-74
2023/04/28 06:14:30;;;;;;;15.10;11.43;;;8.40;99.90;;;;;;5029255;28;20061;-73
2023/04/28 06:16:56;;;;;;;14.88;11.65;;;8.40;99.90;;;;;;5039436;28;20033;-72
2023/04/28 06:19:21;;;;;;;17.60;12.07;;;8.40;99.90;;;;;;5036322;28;20049;-72
2023/04/28 06:21:49;;;;;;;16.65;11.77;;;8.50;99.90;;;;;;5043375;28;20430;-72
2023/04/28 06:24:14;;;;;;;;;;;8.40;99.90;;;;;;5038710;28;20045;-72
2023/04/28 06:26:40;;;;;;;15.45;11.27;;;8.50;99.90;;;;;;5039007;28;20036;-72
2023/04/28 06:29:06;;;;;;;16.75;11.40;;;8.50;99.90;;;;;;5043654;28;20124;-71
2023/04/28 06:31:31;;;;;;;14.98;9.68;;;8.50;99.90;;;;;;5043550;28;20455;-72
2023/04/28 06:33:59;;;;;;;13.48;10.13;;;8.50;99.90;;;;;;5039507;28;20045;-72
2023/04/28 06:36:25;;;;;;;13.95;10.20;;;8.50;99.90;;;;;;5041156;28;20037;-72
2023/04/28 06:38:51;;;;;;;12.32;10.50;;;8.60;99.90;;;;;;5039984;28;20056;-72
2023/04/28 06:41:16;;;;;;;16.52;10.30;;;8.50;99.90;;;;;;5039952;28;20036;-72
2023/04/28 06:43:42;;;;;;;14.45;10.88;;;8.60;99.90;;;;;;5040512;28;20128;-72
2023/04/28 06:46:09;;;;;;;18.33;11.43;;;8.60;99.90;;;;;;5043006;28;20041;-72
2023/04/28 06:48:35;;;;;;;15.18;10.80;;;8.60;99.90;;;;;;5043028;28;20045;-72
2023/04/28 06:51:01;;;;;;;17.75;11.20;;;8.60;99.90;;;;;;5040790;28;20041;-72
2023/04/28 06:53:26;;;;;;;14.45;10.77;;;8.60;99.90;;;;;;5043124;28;20072;-72
2023/04/28 06:55:52;;;;;;;14.50;10.93;;;8.70;99.90;;;;;;5034322;28;20090;-72
2023/04/28 06:58:19;;;;;;;13.50;10.23;;;8.70;99.90;;;;;;5037058;28;20054;-72
2023/04/28 07:00:45;;;;;;;15.27;10.82;;;8.70;99.90;;;;;;5044418;28;20048;-72
2023/04/28 07:03:11;;;;;;;19.05;12.00;;;8.80;99.90;;;;;;5046485;28;20364;-72
2023/04/28 07:05:36;;;;;;;17.95;12.25;;;8.70;99.90;;;;;;5046264;28;20591;-73
2023/04/28 07:08:02;;;;;;;19.13;13.52;;;8.80;99.90;;;;;;5037624;28;20128;-72
2023/04/28 07:10:28;;;;;;;17.73;11.90;;;8.80;99.90;;;;;;5042845;28;20041;-72
2023/04/28 07:12:54;;;;;;;18.08;12.25;;;8.90;99.90;;;;;;5045947;28;20552;-72
2023/04/28 07:15:20;;;;;;;17.17;11.90;;;8.80;99.90;;;;;;5040028;28;20534;-74
2023/04/28 07:17:46;;;;;;;21.58;13.23;;;8.80;99.90;;;;;;5043513;28;20049;-72
2023/04/28 07:20:13;;;;;;;16.98;11.88;;;8.90;99.90;;;;;;5045264;28;20094;-75
2023/04/28 07:22:39;;;;;;;24.52;15.00;;;8.90;99.90;;;;;;5042486;28;20056;-76
2023/04/28 07:25:05;;;;;;;14.43;10.85;;;8.90;99.90;;;;;;5042412;28;20049;-71
2023/04/28 07:27:31;;;;;;;14.45;10.85;;;8.90;99.90;;;;;;5045000;28;20411;-72
2023/04/28 07:29:56;;;;;;;19.63;13.43;;;9.00;99.90;;;;;;5035250;28;20037;-72
2023/04/28 07:32:23;;;;;;;23.75;14.77;;;9.10;99.90;;;;;;5043906;28;20045;-72
2023/04/28 07:34:48;;;;;;;18.00;12.88;;;9.10;99.90;;;;;;5046694;28;20122;-74
2023/04/28 07:37:15;;;;;;;17.08;11.90;;;9.20;99.90;;;;;;5048284;28;20415;-73
2023/04/28 07:39:40;;;;;;;16.83;11.60;;;9.20;99.90;;;;;;5042484;28;20119;-72
2023/04/28 07:42:06;;;;;;;13.02;10.25;;;9.20;99.90;;;;;;5041503;28;20179;-73
2023/04/28 07:44:34;;;;;;;16.20;11.73;;;9.20;99.90;;;;;;5049468;28;20033;-73
2023/04/28 07:47:00;;;;;;;17.05;12.60;;;9.20;99.90;;;;;;5042740;28;20052;-71
2023/04/28 07:49:28;;;;;;;13.77;10.93;;;9.30;99.90;;;;;;5044509;28;20399;-72
2023/04/28 07:51:54;;;;;;;22.65;16.42;;;9.40;99.90;;;;;;5048788;28;20120;-72
2023/04/28 07:54:20;;;;;;;15.75;10.73;;;9.40;99.90;;;;;;5048200;28;20060;-71
2023/04/28 07:56:46;;;;;;;16.90;10.95;;;9.40;99.90;;;;;;5049159;28;20041;-72
2023/04/28 07:59:12;;;;;;;14.05;10.88;;;9.60;99.90;;;;;;5045550;28;20104;-71
2023/04/28 08:01:37;;;;;;;16.63;10.60;;;9.60;99.90;;;;;;5047669;28;20057;-72
2023/04/28 08:04:03;;;;;;;13.40;10.80;;;9.70;99.90;;;;;;5047997;28;20049;-71
2023/04/28 08:06:29;;;;;;;14.85;11.45;;;9.80;99.90;;;;;;5042402;28;20051;-73
2023/04/28 08:08:54;;;;;;;28.55;11.68;;;9.80;99.90;;;;;;5043353;28;20041;-74
2023/04/28 08:11:21;;;;;;;12.82;10.68;;;9.90;99.90;;;;;;5046136;28;20053;-74
2023/04/28 08:13:47;;;;;;;12.80;10.55;;;10.00;99.90;;;;;;5047223;28;20108;-73
2023/04/28 08:16:16;;;;;;;12.30;11.00;;;10.10;99.90;;;;;;5049111;28;20080;-73
2023/04/28 08:18:42;;;;;;;13.88;10.60;;;10.30;99.90;;;;;;5048272;28;20106;-74
2023/04/28 08:21:07;;;;;;;12.27;10.80;;;10.50;99.90;;;;;;5044415;28;20049;-73
2023/04/28 08:23:33;;;;;;;13.32;10.75;;;10.60;99.90;;;;;;5043363;28;20056;-74
2023/04/28 08:25:58;;;;;;;14.93;10.15;;;10.60;99.90;;;;;;5042978;28;20551;-78
2023/04/28 08:28:24;;;;;;;11.75;10.45;;;10.60;99.90;;;;;;5048794;28;20053;-71
2023/04/28 08:30:50;;;;;;;15.55;11.18;;;10.70;99.90;;;;;;5050032;28;20045;-69
2023/04/28 08:33:15;;;;;;;12.18;10.30;;;10.70;99.90;;;;;;5045888;28;20606;-71
2023/04/28 08:35:41;;;;;;;11.75;10.55;;;10.70;99.90;;;;;;5045963;28;20435;-70
2023/04/28 08:38:12;;;;;;;15.32;11.63;;;10.80;99.90;;;;;;5042157;28;20037;-71
2023/04/28 08:40:38;;;;;;;14.98;11.15;;;10.90;99.90;;;;;;5041150;28;20045;-71
2023/04/28 08:43:04;;;;;;;16.75;11.20;;;10.90;99.90;;;;;;5045329;28;20664;-71
2023/04/28 08:45:30;;;;;;;13.68;10.82;;;10.90;99.90;;;;;;5047812;28;20048;-71
2023/04/28 08:47:59;;;;;;;13.20;10.93;;;11.10;99.90;;;;;;5047109;28;20444;-71
2023/04/28 08:50:30;;;;;;;12.52;10.43;;;11.10;99.90;;;;;;5047184;28;20045;-71
2023/04/28 08:52:56;;;;;;;16.05;11.27;;;11.20;99.90;;;;;;5046095;28;20041;-71
2023/04/28 08:55:25;;;;;;;13.88;11.50;;;11.20;99.90;;;;;;5043523;28;20037;-70
2023/04/28 08:57:51;;;;;;;13.18;11.35;;;11.20;99.90;;;;;;5043953;28;20106;-72
2023/04/28 09:00:17;;;;;;;19.10;11.27;;;11.30;99.90;;;;;;5044903;28;20120;-70
2023/04/28 09:02:43;;;;;;;14.35;11.50;;;11.30;99.90;;;;;;5044690;28;20466;-70
2023/04/28 09:05:10;;;;;;;13.50;10.77;;;11.40;99.90;;;;;;5046221;28;20095;-70
2023/04/28 09:07:36;;;;;;;;;;;11.40;99.90;;;;;;5047696;28;20094;-70
2023/04/28 09:10:15;;;;;;;13.02;10.55;;;11.40;99.90;;;;;;5044213;28;19986;-71
2023/04/28 09:12:44;;;;;;;13.13;10.95;;;11.50;99.90;;;;;;5041897;28;20708;-74
2023/04/28 09:15:10;;;;;;;13.75;10.98;;;11.50;99.90;;;;;;5031502;28;20874;-73
2023/04/28 09:17:54;;;;;;;13.23;11.23;;;11.50;99.90;;;;;;5043469;28;20150;-73
2023/04/28 09:20:21;;;;;;;12.98;11.35;;;11.60;99.90;;;;;;5045478;28;20125;-71
2023/04/28 09:22:49;;;;;;;14.05;11.18;;;11.60;99.90;;;;;;5040742;28;20053;-73
2023/04/28 09:25:16;;;;;;;12.88;11.35;;;11.70;99.90;;;;;;5046734;28;20044;-72
2023/04/28 09:27:42;;;;;;;14.23;11.07;;;11.70;99.90;;;;;;5037711;28;20720;-72
2023/04/28 09:30:09;;;;;;;13.20;11.40;;;11.70;99.90;;;;;;5039806;28;20128;-75
2023/04/28 09:32:36;;;;;;;14.48;11.52;;;11.80;99.90;;;;;;5040969;28;20069;-74
2023/04/28 09:35:03;;;;;;;13.32;11.63;;;11.80;99.90;;;;;;5044972;28;20698;-72
2023/04/28 09:37:30;;;;;;;14.57;11.23;;;11.90;99.90;;;;;;5022088;28;20068;-69
2023/04/28 09:40:02;;;;;;;16.35;11.90;;;11.90;99.90;;;;;;5000478;28;20056;-70
2023/04/28 09:42:41;;;;;;;13.70;11.25;;;11.90;99.90;;;;;;5015354;28;20089;-73
2023/04/28 09:45:09;;;;;;;13.00;11.30;;;12.00;99.90;;;;;;5011577;28;20172;-74
2023/04/28 09:47:36;;;;;;;;;;;12.10;99.90;;;;;;5021562;28;20064;-73
2023/04/28 09:50:19;;;;;;;15.13;11.57;;;12.10;99.90;;;;;;5020769;28;19972;-71
2023/04/28 09:52:58;;;;;;;14.15;11.30;;;12.30;99.90;;;;;;4991235;28;20740;-72
2023/04/28 09:55:25;;;;;;;17.45;11.90;;;12.30;99.90;;;;;;5023296;28;20083;-72
2023/04/28 09:58:02;;;;;;;13.75;10.35;;;12.40;99.90;;;;;;5012924;28;20563;-73
2023/04/28 10:00:29;;;;;;;12.18;10.88;;;12.40;99.90;;;;;;4994126;28;20045;-74
2023/04/28 10:02:55;;;;;;;18.10;12.00;;;12.40;99.90;;;;;;5018769;28;20576;-72
2023/04/28 10:05:24;;;;;;;14.15;12.35;;;12.40;99.90;;;;;;5023559;28;20064;-72
2023/04/28 10:07:52;;;;;;;13.88;11.65;;;12.40;99.90;;;;;;5026607;28;20068;-73
2023/04/28 10:10:19;;;;;;;16.33;12.02;;;12.40;99.90;;;;;;5040955;28;20048;-73
2023/04/28 10:12:44;;;;;;;14.40;11.95;;;12.40;99.90;;;;;;5043978;28;20124;-73
2023/04/28 10:15:12;;;;;;;16.45;11.90;;;12.50;99.90;;;;;;5045439;28;20137;-73
2023/04/28 10:17:37;;;;;;;;;;;12.60;99.90;;;;;;5043287;28;20044;-71
2023/04/28 10:20:05;;;;;;;14.82;12.32;;;12.60;99.90;;;;;;5043556;28;19927;-70
2023/04/28 10:23:25;;;;;;;15.45;12.02;;;12.90;99.90;;;;;;5037323;28;20056;-77
2023/04/28 10:25:56;;;;;;;14.30;12.20;;;13.10;99.90;;;;;;5042165;28;20080;-78
2023/04/28 10:28:25;;;;;;;13.63;12.05;;;13.40;99.90;;;;;;5040465;28;20650;-77
2023/04/28 10:31:17;;;;;;;14.63;12.25;;;13.50;99.90;;;;;;5042373;28;20835;-82
2023/04/28 10:33:44;;;;;;;13.82;12.20;;;13.70;99.90;;;;;;5039346;28;20174;-75
2023/04/28 10:36:10;;;;;;;14.05;12.60;;;13.70;99.90;;;;;;5043698;28;20041;-77
2023/04/28 10:39:01;;;;;;;16.90;12.73;;;13.80;99.90;;;;;;5044517;28;20492;-79
2023/04/28 10:41:32;;;;;;;17.70;12.38;;;13.80;99.90;;;;;;5046427;28;20622;-80
2023/04/28 10:43:57;;;;;;;16.65;12.60;;;13.80;99.90;;;;;;5048137;28;20045;-79
2023/04/28 10:46:23;;;;;;;14.57;11.95;;;13.90;99.90;;;;;;5048037;28;20071;-79
2023/04/28 10:48:49;;;;;;;14.57;11.40;;;14.00;99.90;;;;;;5042696;28;20500;-76
2023/04/28 10:51:15;;;;;;;13.70;12.18;;;14.00;99.90;;;;;;5049649;28;20037;-77
2023/04/28 10:53:43;;;;;;;15.15;12.45;;;14.00;99.90;;;;;;5042952;28;20084;-77
2023/04/28 10:56:18;;;;;;;14.82;12.10;;;14.20;99.90;;;;;;5037425;28;20057;-70
2023/04/28 10:58:49;;;;;;;12.95;11.57;;;14.30;99.90;;;;;;5045406;28;20052;-71
2023/04/28 11:01:20;;;;;;;12.23;10.90;;;14.40;99.90;;;;;;5040994;28;20080;-68
2023/04/28 11:03:46;;;;;;;16.17;12.02;;;14.50;99.90;;;;;;5048737;28;20041;-71
2023/04/28 11:06:22;;;;;;;14.98;11.18;;;14.60;99.90;;;;;;5048449;28;20045;-68
2023/04/28 11:08:49;;;;;;;12.00;9.68;;;14.70;99.90;;;;;;5048663;28;20153;-66
2023/04/28 11:11:19;;;;;;;12.77;9.55;;;14.80;99.90;;;;;;5041800;28;20073;-67
2023/04/28 11:13:45;;;;;;;15.63;10.43;;;15.10;99.90;;;;;;5040275;28;20583;-69
2023/04/28 11:16:16;;;;;;;16.20;10.13;;;15.30;99.90;;;;;;5045770;28;20084;-69
2023/04/28 11:19:03;;;;;;;20.50;11.02;;;15.30;99.90;;;;;;5047030;28;20045;-67
2023/04/28 11:21:29;;;;;;;;;;;15.50;99.90;;;;;;5043168;28;20041;-69
2023/04/28 11:23:57;;;;;;;12.80;9.90;;;15.60;99.90;;;;;;5043888;28;20479;-69
2023/04/28 11:26:23;;;;;;;13.23;9.65;;;15.70;99.90;;;;;;5045686;28;20048;-74
2023/04/28 11:28:51;;;;;;;11.50;9.98;;;15.80;99.90;;;;;;5044865;28;20503;-73
2023/04/28 11:31:19;;;;;;;12.73;10.00;;;15.90;99.90;;;;;;5043200;28;20094;-71
2023/04/28 11:33:51;;;;;;;13.75;10.48;;;15.90;99.90;;;;;;5048310;28;20128;-70
2023/04/28 11:36:32;;;;;;;14.02;9.65;;;16.10;99.90;;;;;;5046177;28;20033;-72
2023/04/28 11:38:58;;;;;;;11.50;9.73;;;16.10;99.90;;;;;;5048394;28;20041;-70
2023/04/28 11:41:25;;;;;;;13.70;9.95;;;16.20;99.90;;;;;;5045015;28;20071;-70
2023/04/28 11:43:51;;;;;;;15.75;10.07;;;16.30;99.90;;;;;;5045746;28;20044;-70
2023/04/28 11:46:18;;;;;;;11.32;9.95;;;16.40;99.90;;;;;;5039808;28;20041;-71
2023/04/28 11:48:45;;;;;;;16.33;10.43;;;16.40;99.90;;;;;;5044390;28;20037;-70
2023/04/28 11:51:37;;;;;;;11.57;10.15;;;16.30;99.90;;;;;;5040109;28;20655;-73
2023/04/28 11:54:04;;;;;;;14.23;10.20;;;16.20;99.90;;;;;;5042486;28;20075;-71
2023/04/28 11:56:30;;;;;;;12.30;10.60;;;16.10;99.90;;;;;;5039267;28;20069;-71
2023/04/28 11:59:01;;;;;;;12.27;10.90;;;16.00;99.90;;;;;;5044461;28;20120;-72
2023/04/28 12:01:31;;;;;;;14.30;10.98;;;16.00;99.90;;;;;;5044258;28;20045;-73
2023/04/28 12:03:56;;;;;;;13.93;11.10;;;15.90;99.90;;;;;;5040132;28;20049;-73
2023/04/28 12:06:23;;;;;;;12.35;10.75;;;15.80;99.90;;;;;;5045566;28;20095;-71
2023/04/28 12:08:51;;;;;;;13.40;10.80;;;15.80;99.90;;;;;;5046216;28;20087;-72
2023/04/28 12:11:17;;;;;;;12.48;10.48;;;15.70;99.90;;;;;;5047493;28;20041;-72
2023/04/28 12:14:01;;;;;;;12.90;10.27;;;15.80;99.90;;;;;;5045476;28;20496;-73
2023/04/28 12:16:38;;;;;;;13.38;11.18;;;15.70;99.90;;;;;;5046413;28;20071;-72
2023/04/28 12:19:06;;;;;;;11.93;10.73;;;15.70;99.90;;;;;;5047401;28;20045;-73
2023/04/28 12:21:32;;;;;;;12.18;10.95;;;15.70;99.90;;;;;;5043243;28;20643;-73
2023/04/28 12:23:58;;;;;;;13.75;11.30;;;15.70;99.90;;;;;;5048684;28;20116;-73
2023/04/28 12:26:24;;;;;;;16.30;11.73;;;15.60;99.90;;;;;;5040876;28;20404;-72
2023/04/28 12:28:50;;;;;;;15.23;11.75;;;15.60;99.90;;;;;;5047013;28;20055;-70
2023/04/28 12:31:15;;;;;;;13.07;11.65;;;15.50;99.90;;;;;;5046814;28;20128;-70
2023/04/28 12:33:41;;;;;;;13.23;11.85;;;15.40;99.90;;;;;;5046354;28;20518;-70
2023/04/28 12:36:06;;;;;;;16.35;11.52;;;15.30;99.90;;;;;;5047721;28;20033;-70